Hearne, TX

5:11 AM CDT on September 30, 2014 (GMT -0500)
MesoWest HEARNE TX US UPR | Change Station
CLOSE
Current Station
Personal Weather Station
Location: Hearne, TX
Elevation: 328 ft
Nearby Weather Stations

Elev 328 ft 30.91 °N, 96.60 °W | Updated 2 hours ago

Overcast
Overcast
71.0 °F
Feels Like 71.0 °F
N
-
Wind Variable Wind from North

Today
High -- | Low -- °F
--% Chance of Precip.
Yesterday
High -- | Low -- °F
Precip. -- in
7:19 AM 7:12 PM
Waxing Crescent, 35% visible
Pressure 29.89 in
Visibility 10.0 miles
Clouds Scattered Clouds 2800 ft
Mostly Cloudy 5000 ft
Overcast 12000 ft
Dew Point Not available.
Humidity Not available.
Rainfall -9999.00 in
Snow Depth Not available.
UV 0 out of 12
Pollen 8.90 out of 12
Air Quality Not available.
Flu Activity Not available.
METAR KLHB 300955Z AUTO 00000KT 10SM SCT028 BKN050 OVC120 21/20 A2989 RMK AO2 T02110195

More Conditions Fewer Conditions

Pressure 29.89 in
Visibility 10.0 miles
Clouds Scattered Clouds 2800 ft
Mostly Cloudy 5000 ft
Overcast 12000 ft
Dew Point Not available.
Humidity Not available.
Rainfall -9999.00 in
Snow Depth Not available.
UV 0 out of 12
Pollen 8.90 out of 12
Air Quality Not available.
Flu Activity Not available.
METAR KLHB 300955Z AUTO 00000KT 10SM SCT028 BKN050 OVC120 21/20 A2989 RMK AO2 T02110195

More Conditions Fewer Conditions

10-Day Weather Forecast

Almanac

Astronomy

Sep. 30, 2014 Rise Set
Actual Time 7:19 AM CDT 7:12 PM CDT
Civil Twilight 6:55 AM CDT 7:36 PM CDT
Nautical Twilight 6:27 AM CDT 8:04 PM CDT
Astronomical Twilight 5:59 AM CDT 8:32 PM CDT
Moon 1:10 PM CDT No Moon Set
Length of Visible Light 12h 41m
Length of Day
11h 53m
Tomorrow will be 1m 51s shorter.
Waxing Crescent, 35% of the Moon is Illuminated
Today
Waxing Crescent
Oct 1
First Quarter
Oct 8
Full
Oct 15
Last Quarter
Oct 23
New

Today's Extremes

State Highs State Lows

Community

WunderPhotos

Upload Photos

1,757,608 photos uploaded!

Nearby

Snow Depth

Station Depth Elevation
No new snow has been reported.

Earthquake Activity

City Distance Mag. Time & Date
No recent earthquake activity has been reported nearby.
Minimum magnitude displayed is 2.5.

Coastal Water Temperatures

Place Temperature
No Stations Reporting

Nearby Weather Stations